Time;durP1;ratioP1;P1;durP2;ratioP2;P2;SDS_P1;SDS_P2;PMS_P1;PMS_P2;Temp;Humidity;BMP_temperature;BMP_pressure;BME280_temperature;BME280_humidity;BME280_pressure;Samples;Min_cycle;Max_cycle;Signal;HPM_P1;HPM_P2
2022/11/24 00:01:04;;;;;;;13.52;2.35;;;11.50;59.00;;;;;;5022745;28;20053;-51
2022/11/24 00:03:33;;;;;;;14.68;2.42;;;11.50;59.00;;;;;;5025942;28;20516;-49
2022/11/24 00:06:04;;;;;;;12.52;2.13;;;11.50;59.00;;;;;;5023487;28;20049;-51
2022/11/24 00:08:32;;;;;;;14.07;2.55;;;11.50;59.00;;;;;;5025573;28;20053;-44
2022/11/24 00:11:04;;;;;;;9.00;1.85;;;11.50;58.90;;;;;;5021838;28;20416;-47
2022/11/24 00:13:32;;;;;;;14.43;2.55;;;11.50;58.90;;;;;;5026166;28;20064;-51
2022/11/24 00:16:08;;;;;;;18.58;2.72;;;11.50;58.80;;;;;;5023029;28;20057;-45
2022/11/24 00:18:36;;;;;;;14.80;2.50;;;11.50;58.90;;;;;;5026506;28;20428;-48
2022/11/24 00:21:04;;;;;;;13.88;2.75;;;11.50;58.80;;;;;;5021968;28;20049;-50
2022/11/24 00:23:31;;;;;;;13.75;2.90;;;11.50;58.80;;;;;;5025713;28;20053;-51
2022/11/24 00:26:04;;;;;;;13.95;3.00;;;11.50;58.80;;;;;;5022562;28;20054;-52
2022/11/24 00:28:32;;;;;;;11.70;2.03;;;11.50;58.80;;;;;;5024700;28;20061;-51
2022/11/24 00:31:00;;;;;;;17.38;2.42;;;11.50;58.90;;;;;;5020817;28;20057;-49
2022/11/24 00:33:27;;;;;;;13.00;2.35;;;11.50;58.90;;;;;;5024428;28;20061;-51
2022/11/24 00:35:56;;;;;;;10.82;2.20;;;11.50;58.90;;;;;;5023389;28;20539;-50
2022/11/24 00:38:24;;;;;;;15.27;2.95;;;11.50;58.90;;;;;;5025375;28;21336;-51
2022/11/24 00:40:51;;;;;;;14.00;2.08;;;11.60;58.90;;;;;;5021422;28;20060;-51
2022/11/24 00:43:19;;;;;;;11.00;2.35;;;11.60;58.90;;;;;;5025099;28;20076;-51
2022/11/24 00:45:46;;;;;;;17.38;2.80;;;11.60;58.90;;;;;;5020308;28;20049;-45
2022/11/24 00:48:13;;;;;;;13.82;2.53;;;11.60;58.80;;;;;;5025059;28;20504;-45
2022/11/24 00:50:41;;;;;;;15.23;2.28;;;11.60;58.80;;;;;;5023224;28;20046;-47
2022/11/24 00:53:09;;;;;;;13.25;2.63;;;11.60;58.80;;;;;;5023647;28;20056;-45
2022/11/24 00:55:36;;;;;;;13.18;2.53;;;11.60;58.70;;;;;;5022623;28;20755;-51
2022/11/24 00:58:04;;;;;;;22.80;3.30;;;11.60;58.70;;;;;;5025288;28;20057;-51
2022/11/24 01:00:31;;;;;;;10.43;2.47;;;11.60;58.70;;;;;;5021297;28;20057;-49
2022/11/24 01:02:58;;;;;;;8.80;1.92;;;11.60;58.60;;;;;;5024497;28;20068;-51
2022/11/24 01:05:26;;;;;;;11.85;2.08;;;11.60;58.60;;;;;;5023554;28;20053;-51
2022/11/24 01:07:53;;;;;;;14.52;2.47;;;11.70;58.60;;;;;;5023362;28;20061;-51
2022/11/24 01:10:21;;;;;;;20.60;2.20;;;11.70;58.60;;;;;;5021050;28;20053;-50
2022/11/24 01:12:49;;;;;;;13.70;2.22;;;11.70;58.60;;;;;;5022266;28;20405;-48
2022/11/24 01:15:16;;;;;;;14.48;2.53;;;11.70;58.50;;;;;;5022212;28;20129;-49
2022/11/24 01:17:43;;;;;;;12.18;2.42;;;11.70;58.50;;;;;;5025153;28;20497;-51
2022/11/24 01:20:11;;;;;;;10.95;2.00;;;11.70;58.50;;;;;;5020999;28;20045;-51
2022/11/24 01:22:40;;;;;;;13.65;2.30;;;11.70;58.50;;;;;;5022335;28;20057;-50
2022/11/24 01:25:09;;;;;;;17.50;2.53;;;11.70;58.40;;;;;;5022794;28;20049;-43
2022/11/24 01:27:38;;;;;;;11.93;1.98;;;11.70;58.40;;;;;;5024697;28;20065;-50
2022/11/24 01:30:07;;;;;;;11.43;2.30;;;11.70;58.40;;;;;;5020431;28;20057;-47
2022/11/24 01:32:36;;;;;;;12.52;2.28;;;11.70;58.40;;;;;;5021832;28;20425;-50
2022/11/24 01:35:03;;;;;;;12.50;2.67;;;11.70;58.40;;;;;;5022203;28;21465;-49
2022/11/24 01:37:31;;;;;;;14.57;2.45;;;11.70;58.40;;;;;;5024207;28;20053;-51
2022/11/24 01:39:58;;;;;;;13.93;2.30;;;11.70;58.50;;;;;;5023792;28;20064;-47
2022/11/24 01:42:25;;;;;;;15.20;2.42;;;11.70;58.50;;;;;;5020358;28;20513;-51
2022/11/24 01:45:30;;;;;;;13.75;2.65;;;11.70;58.50;;;;;;5020417;28;20584;-48
2022/11/24 01:47:58;;;;;;;18.52;2.95;;;11.80;58.60;;;;;;5021386;28;20635;-50
2022/11/24 01:50:25;;;;;;;14.40;2.40;;;11.80;58.60;;;;;;5019928;28;20060;-51
2022/11/24 01:52:55;;;;;;;11.32;2.65;;;11.70;58.60;;;;;;5023225;28;20500;-51
2022/11/24 01:55:27;;;;;;;15.52;2.60;;;11.80;58.60;;;;;;5022920;28;20604;-51
2022/11/24 01:57:59;;;;;;;20.80;2.53;;;11.80;58.60;;;;;;5022010;28;20065;-49
2022/11/24 02:00:28;;;;;;;11.65;2.53;;;11.80;58.60;;;;;;5020572;28;20588;-40
2022/11/24 02:02:57;;;;;;;16.08;2.75;;;11.80;58.60;;;;;;5021853;28;20120;-42
2022/11/24 02:05:28;;;;;;;17.60;2.13;;;11.80;58.50;;;;;;5021785;28;20061;-43
2022/11/24 02:07:59;;;;;;;10.60;1.92;;;11.90;58.50;;;;;;5023786;28;20054;-41
2022/11/24 02:10:27;;;;;;;9.63;2.05;;;11.90;58.50;;;;;;5018057;28;20052;-39
2022/11/24 02:12:57;;;;;;;14.52;2.40;;;11.90;58.40;;;;;;5023111;28;20068;-40
2022/11/24 02:15:25;;;;;;;15.65;2.58;;;11.90;58.30;;;;;;5021206;28;20510;-41
2022/11/24 02:17:53;;;;;;;14.55;2.28;;;11.90;58.30;;;;;;5023855;28;20056;-41
2022/11/24 02:20:21;;;;;;;17.92;2.78;;;11.90;58.20;;;;;;5020155;28;20600;-39
2022/11/24 02:22:54;;;;;;;9.65;2.65;;;11.90;58.20;;;;;;5023041;28;20439;-39
2022/11/24 02:25:34;;;;;;;9.27;2.00;;;11.90;58.20;;;;;;5021797;28;20064;-39
2022/11/24 02:28:06;;;;;;;19.40;2.63;;;11.90;58.20;;;;;;5022830;28;20060;-42
2022/11/24 02:30:34;;;;;;;10.50;2.78;;;12.00;58.20;;;;;;5019354;28;20517;-42
2022/11/24 02:33:02;;;;;;;13.88;2.25;;;12.00;58.20;;;;;;5023423;28;20049;-42
2022/11/24 02:35:30;;;;;;;15.25;2.42;;;12.00;58.20;;;;;;5022798;28;20045;-42
2022/11/24 02:37:57;;;;;;;17.17;2.53;;;11.90;58.10;;;;;;5018734;28;20065;-44
2022/11/24 02:40:27;;;;;;;14.23;2.38;;;12.00;58.20;;;;;;5017328;28;20053;-41
2022/11/24 02:42:57;;;;;;;11.02;1.98;;;12.00;58.20;;;;;;5022236;28;20528;-39
2022/11/24 02:45:26;;;;;;;17.13;2.63;;;12.00;58.20;;;;;;5018690;28;20057;-39
2022/11/24 02:47:54;;;;;;;12.82;2.63;;;12.00;58.20;;;;;;5021120;28;20495;-39
2022/11/24 02:50:21;;;;;;;11.55;1.90;;;12.00;58.20;;;;;;5018699;28;20242;-43
2022/11/24 02:52:48;;;;;;;16.05;2.30;;;12.00;58.10;;;;;;5019311;28;20053;-41
2022/11/24 02:55:15;;;;;;;18.42;3.58;;;12.10;58.20;;;;;;5021634;28;20053;-44
2022/11/24 02:57:43;;;;;;;19.77;3.05;;;12.00;58.10;;;;;;5022651;28;20046;-39
2022/11/24 03:00:11;;;;;;;18.13;2.30;;;12.00;58.00;;;;;;5017948;28;20049;-41
2022/11/24 03:02:40;;;;;;;10.82;2.17;;;12.10;58.10;;;;;;5018810;28;20486;-40
2022/11/24 03:05:07;;;;;;;12.65;2.67;;;12.00;58.00;;;;;;5020511;28;20525;-40
2022/11/24 03:07:35;;;;;;;14.43;2.47;;;12.10;58.00;;;;;;5022749;28;20054;-40
2022/11/24 03:10:02;;;;;;;11.90;2.28;;;12.10;58.00;;;;;;5023131;28;20053;-43
2022/11/24 03:12:29;;;;;;;15.98;2.15;;;12.10;58.00;;;;;;5025026;28;20057;-40
2022/11/24 03:14:56;;;;;;;16.08;2.67;;;12.10;57.90;;;;;;5024257;28;20057;-41
2022/11/24 03:17:24;;;;;;;15.00;2.35;;;12.10;57.90;;;;;;5025417;28;20058;-39
2022/11/24 03:19:52;;;;;;;17.45;4.13;;;12.10;57.90;;;;;;5025705;28;20076;-40
2022/11/24 03:22:27;;;;;;;17.60;2.45;;;12.10;58.20;;;;;;5022339;28;20058;-46
2022/11/24 03:24:54;;;;;;;12.88;2.53;;;12.10;57.70;;;;;;5024472;28;20057;-39
2022/11/24 03:27:21;;;;;;;15.57;2.67;;;12.10;57.70;;;;;;5026664;28;20057;-39
2022/11/24 03:29:48;;;;;;;12.90;2.67;;;12.10;57.70;;;;;;5024937;28;20497;-41
2022/11/24 03:32:16;;;;;;;12.00;2.15;;;12.10;57.70;;;;;;5022166;28;20061;-41
2022/11/24 03:34:43;;;;;;;21.75;2.92;;;12.10;57.70;;;;;;5025654;28;20049;-40
2022/11/24 03:37:11;;;;;;;13.57;2.20;;;12.10;57.70;;;;;;5026707;28;20494;-39
2022/11/24 03:39:39;;;;;;;16.85;2.80;;;12.10;57.70;;;;;;5025014;28;20057;-46
2022/11/24 03:42:06;;;;;;;11.85;2.20;;;12.10;57.70;;;;;;5023185;28;20053;-41
2022/11/24 03:44:33;;;;;;;12.98;2.85;;;12.10;57.70;;;;;;5024859;28;20060;-43
2022/11/24 03:47:01;;;;;;;13.95;2.10;;;12.10;57.70;;;;;;5023357;28;20050;-41
2022/11/24 03:49:28;;;;;;;13.77;2.38;;;12.10;57.70;;;;;;5026620;28;20057;-40
2022/11/24 03:51:55;;;;;;;11.80;1.85;;;12.10;57.70;;;;;;5018994;28;20053;-40
2022/11/24 03:54:24;;;;;;;14.27;2.42;;;12.10;57.70;;;;;;5025672;28;20060;-40
2022/11/24 03:56:51;;;;;;;15.82;3.17;;;12.10;57.80;;;;;;5026183;28;20057;-39
2022/11/24 03:59:19;;;;;;;11.15;2.13;;;12.10;57.70;;;;;;5026481;28;20050;-40
2022/11/24 04:01:46;;;;;;;13.85;2.72;;;12.10;57.70;;;;;;5021814;28;20050;-44
2022/11/24 04:04:13;;;;;;;14.35;2.45;;;12.10;57.70;;;;;;5022741;28;20861;-41
2022/11/24 04:06:41;;;;;;;14.52;3.13;;;12.10;57.70;;;;;;5025730;28;20386;-40
2022/11/24 04:09:08;;;;;;;16.00;2.38;;;12.10;57.60;;;;;;5025707;28;20053;-41
2022/11/24 04:14:21;;;;;;;15.50;2.42;;;12.10;57.60;;;;;;5030601;28;20081;-41
2022/11/24 04:16:49;;;;;;;11.23;2.40;;;12.10;57.70;;;;;;5022060;28;20080;-42
2022/11/24 04:19:16;;;;;;;14.05;2.22;;;12.10;57.70;;;;;;5024275;28;20057;-41
2022/11/24 04:21:43;;;;;;;9.18;2.38;;;12.10;57.70;;;;;;5019445;28;20058;-40
2022/11/24 04:24:11;;;;;;;14.88;2.25;;;12.20;57.70;;;;;;5024204;28;20057;-39
2022/11/24 04:26:39;;;;;;;9.95;1.98;;;12.20;58.10;;;;;;5020574;28;20421;-41
2022/11/24 04:29:06;;;;;;;9.85;2.30;;;12.20;57.60;;;;;;5021179;28;20056;-39
2022/11/24 04:31:33;;;;;;;8.88;1.98;;;12.20;57.60;;;;;;5022347;28;20413;-39
2022/11/24 04:34:01;;;;;;;12.05;2.35;;;12.20;57.50;;;;;;5021495;28;20058;-39
2022/11/24 04:36:28;;;;;;;13.02;2.85;;;12.20;57.50;;;;;;5025873;28;20425;-40
2022/11/24 04:38:55;;;;;;;11.32;2.33;;;12.20;57.50;;;;;;5024476;28;20064;-40
2022/11/24 04:41:22;;;;;;;12.27;2.45;;;12.10;57.40;;;;;;5018624;28;20058;-40
2022/11/24 04:43:51;;;;;;;11.75;2.10;;;12.10;57.40;;;;;;5024662;28;20049;-42
2022/11/24 04:46:18;;;;;;;12.30;2.33;;;12.10;57.40;;;;;;5023483;28;20379;-44
2022/11/24 04:48:46;;;;;;;11.70;2.50;;;12.10;57.40;;;;;;5024557;28;20064;-41
2022/11/24 04:51:14;;;;;;;10.70;2.42;;;12.10;57.90;;;;;;5023383;28;20120;-39
2022/11/24 04:53:42;;;;;;;13.07;2.28;;;12.10;57.40;;;;;;5025357;28;20053;-40
2022/11/24 04:56:09;;;;;;;12.50;2.80;;;12.10;57.40;;;;;;5024908;28;20068;-40
2022/11/24 04:58:36;;;;;;;11.82;2.40;;;12.10;57.40;;;;;;5024377;28;20474;-39
2022/11/24 05:01:08;;;;;;;12.73;2.60;;;12.00;57.30;;;;;;5024100;28;20057;-40
2022/11/24 05:03:35;;;;;;;14.45;2.35;;;12.00;57.30;;;;;;5024853;28;20062;-40
2022/11/24 05:06:03;;;;;;;10.93;2.38;;;12.00;57.30;;;;;;5024955;28;20057;-39
2022/11/24 05:08:30;;;;;;;9.15;2.60;;;12.00;57.40;;;;;;5025206;28;20049;-40
2022/11/24 05:10:57;;;;;;;9.27;2.50;;;12.00;57.40;;;;;;5024466;28;20747;-39
2022/11/24 05:13:24;;;;;;;9.55;2.13;;;12.00;57.50;;;;;;5024515;28;20064;-40
2022/11/24 05:15:52;;;;;;;14.43;2.50;;;12.00;57.50;;;;;;5022796;28;20057;-40
2022/11/24 05:18:21;;;;;;;15.05;2.47;;;11.90;57.50;;;;;;5023593;28;20418;-39
2022/11/24 05:20:48;;;;;;;7.00;2.00;;;12.00;57.50;;;;;;5023747;28;20522;-40
2022/11/24 05:23:16;;;;;;;15.32;2.28;;;12.00;57.60;;;;;;5024747;28;20069;-40
2022/11/24 05:25:43;;;;;;;23.20;2.85;;;11.90;57.60;;;;;;5024135;28;20060;-40
2022/11/24 05:28:10;;;;;;;12.50;2.45;;;11.90;57.60;;;;;;5024981;28;20057;-40
2022/11/24 05:30:39;;;;;;;15.77;2.88;;;11.90;57.70;;;;;;5022337;28;20045;-42
2022/11/24 05:33:07;;;;;;;13.00;2.83;;;11.90;57.70;;;;;;5023299;28;20072;-41
2022/11/24 05:35:36;;;;;;;15.45;2.70;;;11.90;57.70;;;;;;5025097;28;20391;-39
2022/11/24 05:38:04;;;;;;;10.35;2.15;;;11.90;57.80;;;;;;5024826;28;20056;-39
2022/11/24 05:40:31;;;;;;;11.50;2.58;;;11.90;57.80;;;;;;5023785;28;20068;-41
2022/11/24 05:42:59;;;;;;;11.02;2.35;;;11.90;57.80;;;;;;5011167;28;20489;-40
2022/11/24 05:45:26;;;;;;;12.30;2.58;;;11.90;57.90;;;;;;5022454;28;20064;-39
2022/11/24 05:47:53;;;;;;;11.25;2.30;;;11.90;57.90;;;;;;5019956;28;20056;-40
2022/11/24 05:50:22;;;;;;;9.20;2.08;;;11.90;57.90;;;;;;5023678;28;20045;-39
2022/11/24 05:52:51;;;;;;;14.50;2.80;;;11.90;57.90;;;;;;5024190;28;20397;-42
2022/11/24 05:55:20;;;;;;;9.68;2.00;;;12.00;58.00;;;;;;5023934;28;21810;-39
2022/11/24 05:57:47;;;;;;;12.70;2.30;;;12.00;58.00;;;;;;5023617;28;20046;-39
2022/11/24 06:00:17;;;;;;;12.25;2.65;;;12.00;57.90;;;;;;5019660;28;20053;-43
2022/11/24 06:02:44;;;;;;;11.00;1.98;;;12.00;57.90;;;;;;5022721;28;20057;-43
2022/11/24 06:05:11;;;;;;;18.38;2.97;;;12.00;58.00;;;;;;5023822;28;20068;-43
2022/11/24 06:07:38;;;;;;;18.08;2.90;;;12.00;58.00;;;;;;5022805;28;20056;-41
2022/11/24 06:10:08;;;;;;;10.05;2.17;;;11.90;58.00;;;;;;5022901;28;20060;-43
2022/11/24 06:12:35;;;;;;;12.60;2.65;;;12.00;58.00;;;;;;5021509;28;20068;-43
2022/11/24 06:15:03;;;;;;;8.45;1.85;;;12.00;58.00;;;;;;5022336;28;20057;-42
2022/11/24 06:17:30;;;;;;;12.65;2.42;;;12.00;58.10;;;;;;5022870;28;20053;-39
2022/11/24 06:19:57;;;;;;;13.15;2.95;;;12.00;58.10;;;;;;5023614;28;20493;-40
2022/11/24 06:22:25;;;;;;;15.93;3.28;;;12.00;58.20;;;;;;5021290;28;20053;-40
2022/11/24 06:24:52;;;;;;;21.13;3.60;;;12.00;58.20;;;;;;5022585;28;20335;-40
2022/11/24 06:27:21;;;;;;;17.75;2.55;;;12.00;58.20;;;;;;5021847;28;20053;-42
2022/11/24 06:29:48;;;;;;;17.73;2.95;;;12.00;58.30;;;;;;5023055;28;20053;-42
2022/11/24 06:32:15;;;;;;;15.38;2.22;;;12.00;58.30;;;;;;5020263;28;20068;-40
2022/11/24 06:34:42;;;;;;;13.70;2.80;;;12.00;58.30;;;;;;5020268;28;20057;-40
2022/11/24 06:37:10;;;;;;;12.55;2.20;;;12.00;58.30;;;;;;5023597;28;20061;-44
2022/11/24 06:39:37;;;;;;;12.88;2.38;;;12.00;58.30;;;;;;5023486;28;20064;-45
2022/11/24 06:42:05;;;;;;;12.15;2.20;;;12.00;58.30;;;;;;5021980;28;20064;-46
2022/11/24 06:44:33;;;;;;;12.68;2.20;;;12.00;58.30;;;;;;5021141;28;20486;-42
2022/11/24 06:47:01;;;;;;;15.57;4.35;;;12.00;58.30;;;;;;5017828;28;20053;-40
2022/11/24 06:49:28;;;;;;;9.00;2.85;;;12.00;58.30;;;;;;5017661;28;20057;-40
2022/11/24 06:51:55;;;;;;;12.55;2.20;;;12.00;58.30;;;;;;5022585;28;20045;-41
2022/11/24 06:54:23;;;;;;;15.02;2.40;;;12.00;58.20;;;;;;5019317;28;20049;-45
2022/11/24 06:56:50;;;;;;;14.02;2.90;;;12.10;58.20;;;;;;5021168;28;20502;-44
2022/11/24 06:59:19;;;;;;;9.00;2.40;;;12.00;58.20;;;;;;5021441;28;20539;-41
2022/11/24 07:01:47;;;;;;;10.00;2.78;;;12.00;58.10;;;;;;5016169;28;20060;-41
2022/11/24 07:04:15;;;;;;;10.32;2.20;;;12.10;58.20;;;;;;5020723;28;20080;-40
2022/11/24 07:06:43;;;;;;;10.52;1.80;;;12.10;58.20;;;;;;5019840;28;20509;-42
2022/11/24 07:09:12;;;;;;;10.00;2.00;;;12.10;58.20;;;;;;5020412;28;20045;-39
2022/11/24 07:11:41;;;;;;;9.15;1.85;;;12.10;58.20;;;;;;5022015;28;20508;-42
2022/11/24 07:14:09;;;;;;;8.52;1.80;;;12.10;58.20;;;;;;5021532;28;20049;-45
2022/11/24 07:16:37;;;;;;;8.38;1.60;;;12.10;58.30;;;;;;5019841;28;20049;-43
2022/11/24 07:19:06;;;;;;;5.90;1.38;;;12.10;58.30;;;;;;5022017;28;20045;-42
2022/11/24 07:21:34;;;;;;;13.02;2.35;;;12.10;58.30;;;;;;5021993;28;20054;-44
2022/11/24 07:24:01;;;;;;;6.95;1.50;;;12.10;58.30;;;;;;5022446;28;20058;-42
2022/11/24 07:26:29;;;;;;;4.22;1.13;;;12.20;58.40;;;;;;5021670;28;20060;-40
2022/11/24 07:28:56;;;;;;;5.15;1.45;;;12.20;58.40;;;;;;5022254;28;20048;-39
2022/11/24 07:31:24;;;;;;;6.55;1.40;;;12.20;58.40;;;;;;5018404;28;20413;-41
2022/11/24 07:33:53;;;;;;;6.78;1.65;;;12.20;58.40;;;;;;5022698;28;20416;-41
2022/11/24 07:36:22;;;;;;;5.53;1.35;;;12.20;58.40;;;;;;5022752;28;20413;-43
2022/11/24 07:38:49;;;;;;;6.03;1.60;;;12.20;58.40;;;;;;5021666;28;20362;-40
2022/11/24 07:41:19;;;;;;;5.43;1.48;;;12.20;58.40;;;;;;5019807;28;20057;-46
2022/11/24 07:43:47;;;;;;;7.80;1.65;;;12.20;58.40;;;;;;5022611;28;20064;-43
2022/11/24 07:46:16;;;;;;;9.02;1.75;;;12.20;58.40;;;;;;5018883;28;20053;-42
2022/11/24 07:48:44;;;;;;;10.45;1.50;;;12.30;58.40;;;;;;5023143;28;20405;-39
2022/11/24 07:51:11;;;;;;;9.20;1.27;;;12.30;58.40;;;;;;5019910;28;20057;-39
2022/11/24 07:53:40;;;;;;;9.00;1.50;;;12.30;58.40;;;;;;5020915;28;20064;-42
2022/11/24 07:56:07;;;;;;;15.77;1.70;;;12.20;58.30;;;;;;5022804;28;20053;-41
2022/11/24 07:58:36;;;;;;;7.82;1.33;;;12.20;58.30;;;;;;5026178;28;20057;-40
2022/11/24 08:01:10;;;;;;;11.43;2.08;;;12.20;58.20;;;;;;5022559;28;20057;-39
2022/11/24 08:03:37;;;;;;;6.82;1.73;;;12.30;58.40;;;;;;5026140;28;20060;-44
2022/11/24 08:06:05;;;;;;;8.07;1.60;;;12.30;58.40;;;;;;5025302;28;20049;-42
2022/11/24 08:08:33;;;;;;;6.88;1.27;;;12.30;58.40;;;;;;5026120;28;20816;-40
2022/11/24 08:11:06;;;;;;;10.75;1.80;;;12.30;58.40;;;;;;5024245;28;20054;-40
2022/11/24 08:13:34;;;;;;;8.90;1.80;;;12.30;58.40;;;;;;5026100;28;20057;-42
2022/11/24 08:16:05;;;;;;;6.30;1.52;;;12.30;58.30;;;;;;5023296;28;20052;-41
2022/11/24 08:18:32;;;;;;;8.70;1.80;;;12.30;58.30;;;;;;5025195;28;20056;-39
2022/11/24 08:21:00;;;;;;;5.97;1.42;;;12.30;58.40;;;;;;5023725;28;20863;-42
2022/11/24 08:23:28;;;;;;;7.32;1.77;;;12.30;58.40;;;;;;5025942;28;20061;-40
2022/11/24 08:25:56;;;;;;;11.63;1.92;;;12.30;58.40;;;;;;5022862;28;20068;-39
2022/11/24 08:28:24;;;;;;;10.70;2.15;;;12.30;58.40;;;;;;5020199;28;20061;-43
2022/11/24 08:30:52;;;;;;;6.32;1.33;;;12.30;58.50;;;;;;5022741;28;20057;-39
2022/11/24 08:33:19;;;;;;;11.10;2.25;;;12.30;58.40;;;;;;5025817;28;20072;-41
2022/11/24 08:35:46;;;;;;;11.05;3.17;;;12.30;58.40;;;;;;5022750;28;20057;-39
2022/11/24 08:38:15;;;;;;;16.00;4.97;;;12.40;58.50;;;;;;5023149;28;20494;-41
2022/11/24 08:40:43;;;;;;;11.45;3.17;;;12.40;58.50;;;;;;5024594;28;20516;-39
2022/11/24 08:43:10;;;;;;;9.57;2.10;;;12.40;58.40;;;;;;5019425;28;20053;-42
2022/11/24 08:45:38;;;;;;;9.38;1.42;;;12.40;58.40;;;;;;5022638;28;20060;-44
2022/11/24 08:48:06;;;;;;;8.45;1.80;;;12.40;58.40;;;;;;5025448;28;20053;-40
2022/11/24 08:50:34;;;;;;;4.55;1.35;;;12.40;58.40;;;;;;5023911;28;20049;-45
2022/11/24 08:53:01;;;;;;;9.65;1.85;;;12.40;58.30;;;;;;5025088;28;20485;-40
2022/11/24 08:55:28;;;;;;;9.23;1.67;;;12.50;58.30;;;;;;5024169;28;20080;-40
2022/11/24 08:57:56;;;;;;;8.63;1.70;;;12.40;58.50;;;;;;5022631;28;20064;-41
2022/11/24 09:00:23;;;;;;;8.63;2.83;;;12.40;58.00;;;;;;5013743;28;20498;-44
2022/11/24 09:02:56;;;;;;;6.60;2.28;;;12.50;57.80;;;;;;5021889;28;20618;-41
2022/11/24 09:05:24;;;;;;;4.37;1.13;;;12.50;57.70;;;;;;5023054;28;20053;-41
2022/11/24 09:07:51;;;;;;;10.20;1.80;;;12.50;57.60;;;;;;5023206;28;20054;-42
2022/11/24 09:10:19;;;;;;;8.48;1.98;;;12.50;57.50;;;;;;5019622;28;20061;-41
2022/11/24 09:12:47;;;;;;;7.72;1.40;;;12.50;58.00;;;;;;5024191;28;20053;-43
2022/11/24 09:15:15;;;;;;;8.27;1.23;;;12.40;57.50;;;;;;5022749;28;20060;-42
2022/11/24 09:17:43;;;;;;;6.05;1.52;;;12.50;57.60;;;;;;5023507;28;20064;-44
2022/11/24 09:20:12;;;;;;;7.53;1.45;;;12.50;57.50;;;;;;5019786;28;20052;-46
2022/11/24 09:22:40;;;;;;;5.00;1.42;;;12.50;57.60;;;;;;5021514;28;20064;-39
2022/11/24 09:25:08;;;;;;;6.65;1.55;;;12.50;57.60;;;;;;5023189;28;20057;-42
2022/11/24 09:27:36;;;;;;;8.40;1.77;;;12.60;58.00;;;;;;5022152;28;20420;-43
2022/11/24 09:30:04;;;;;;;6.68;1.48;;;12.60;57.50;;;;;;5021948;28;20060;-46
2022/11/24 09:32:32;;;;;;;5.15;1.33;;;12.60;57.90;;;;;;5023077;28;20072;-41
2022/11/24 09:34:59;;;;;;;11.27;1.88;;;12.60;57.40;;;;;;5024373;28;20520;-41
2022/11/24 09:37:27;;;;;;;9.65;1.98;;;12.70;57.30;;;;;;5023879;28;20058;-44
2022/11/24 09:39:55;;;;;;;9.35;2.13;;;12.70;57.20;;;;;;5022769;28;20053;-42
2022/11/24 09:42:33;;;;;;;11.13;1.92;;;12.70;57.10;;;;;;5020052;28;20049;-40
2022/11/24 09:45:19;;;;;;;8.13;2.20;;;12.70;56.90;;;;;;5018323;28;20060;-41
2022/11/24 09:47:55;;;;;;;6.25;1.88;;;12.70;56.70;;;;;;5021639;28;20053;-40
2022/11/24 09:50:25;;;;;;;11.32;1.88;;;12.70;56.70;;;;;;5019531;28;20121;-47
2022/11/24 09:53:02;;;;;;;10.18;1.77;;;12.80;56.80;;;;;;5017609;28;20052;-43
2022/11/24 09:55:36;;;;;;;11.05;1.83;;;12.80;56.70;;;;;;5019022;28;20060;-40
2022/11/24 09:58:12;;;;;;;5.72;1.67;;;12.80;56.60;;;;;;5017671;28;21299;-42
2022/11/24 10:00:40;;;;;;;7.60;1.70;;;12.80;56.70;;;;;;5018061;28;20041;-39
2022/11/24 10:03:15;;;;;;;8.52;1.67;;;12.80;56.60;;;;;;5022152;28;20422;-40
2022/11/24 10:05:43;;;;;;;11.45;1.77;;;12.90;56.60;;;;;;5022506;28;20053;-40
2022/11/24 10:08:32;;;;;;;9.63;1.85;;;12.90;56.50;;;;;;5019475;28;20054;-42
2022/11/24 10:11:01;;;;;;;10.23;1.52;;;12.90;56.40;;;;;;5019288;28;20052;-40
2022/11/24 10:13:53;;;;;;;9.50;1.98;;;12.90;56.20;;;;;;5021317;28;20485;-43
2022/11/24 10:16:34;;;;;;;9.30;1.65;;;12.90;56.00;;;;;;5017604;28;20057;-41
2022/11/24 10:19:13;;;;;;;5.55;1.48;;;13.00;56.00;;;;;;5022273;28;20057;-44
2022/11/24 10:22:06;;;;;;;7.45;1.70;;;13.00;56.00;;;;;;5022583;28;20412;-42
2022/11/24 10:24:55;;;;;;;14.90;2.38;;;13.00;55.90;;;;;;5022226;28;20064;-40
2022/11/24 10:27:28;;;;;;;14.38;1.85;;;13.10;55.80;;;;;;5022872;28;20060;-43
2022/11/24 10:29:56;;;;;;;9.30;1.85;;;13.10;55.80;;;;;;5020142;28;20057;-41
2022/11/24 10:32:27;;;;;;;9.88;2.67;;;13.10;55.80;;;;;;5020577;28;20413;-44
2022/11/24 10:34:59;;;;;;;14.15;2.67;;;13.10;55.70;;;;;;5023522;28;20057;-41
2022/11/24 10:37:32;;;;;;;10.82;1.85;;;13.10;55.50;;;;;;5023505;28;20528;-43
2022/11/24 10:40:09;;;;;;;11.93;1.55;;;13.10;55.40;;;;;;5021893;28;20057;-42
2022/11/24 10:42:37;;;;;;;12.13;2.40;;;13.10;55.20;;;;;;5022557;28;20053;-43
2022/11/24 10:45:12;;;;;;;11.43;1.80;;;13.10;55.20;;;;;;5020728;28;20060;-45
2022/11/24 10:47:40;;;;;;;6.90;1.45;;;13.10;55.30;;;;;;5017315;28;20053;-43
2022/11/24 10:50:18;;;;;;;9.52;1.90;;;13.20;55.30;;;;;;5022207;28;20058;-45
2022/11/24 10:52:52;;;;;;;8.65;1.50;;;13.20;55.20;;;;;;5023537;28;20053;-44
2022/11/24 10:55:21;;;;;;;9.57;1.70;;;13.20;55.20;;;;;;5020870;28;20414;-41
2022/11/24 10:57:48;;;;;;;8.32;2.00;;;13.20;55.00;;;;;;5021601;28;20083;-41
2022/11/24 11:00:33;;;;;;;11.90;2.28;;;13.20;55.00;;;;;;5019567;28;20512;-42
2022/11/24 11:03:20;;;;;;;22.13;2.33;;;13.20;54.90;;;;;;5019799;28;20053;-40
2022/11/24 11:05:53;;;;;;;11.40;1.70;;;13.20;54.90;;;;;;5020746;28;21576;-42
2022/11/24 11:08:24;;;;;;;14.05;2.10;;;13.20;55.00;;;;;;5019726;28;20501;-44
2022/11/24 11:11:13;;;;;;;13.18;1.77;;;13.20;55.00;;;;;;5019845;28;20481;-40
2022/11/24 11:13:54;;;;;;;12.45;1.92;;;13.30;54.90;;;;;;5021525;28;20049;-42
2022/11/24 11:16:39;;;;;;;16.67;2.53;;;13.30;54.80;;;;;;5018571;28;20057;-45
2022/11/24 11:19:34;;;;;;;14.65;2.13;;;13.30;54.70;;;;;;5018605;28;20057;-41
2022/11/24 11:22:04;;;;;;;9.98;1.83;;;13.30;54.70;;;;;;5022744;28;20428;-45
2022/11/24 11:24:32;;;;;;;12.95;2.08;;;13.30;54.60;;;;;;5021942;28;20066;-45
2022/11/24 11:27:02;;;;;;;11.07;2.20;;;13.40;54.50;;;;;;5022632;28;20060;-44
2022/11/24 11:29:30;;;;;;;13.48;2.22;;;13.40;54.50;;;;;;5021768;28;20060;-42
2022/11/24 11:32:00;;;;;;;9.40;1.67;;;13.40;54.50;;;;;;5023086;28;20053;-41
2022/11/24 11:34:33;;;;;;;13.07;2.03;;;13.40;54.40;;;;;;5025144;28;20084;-40
2022/11/24 11:37:03;;;;;;;18.07;2.37;;;13.40;54.40;;;;;;5024619;28;20045;-42
2022/11/24 11:39:34;;;;;;;15.02;2.35;;;13.40;54.40;;;;;;5024987;28;20405;-41
2022/11/24 11:42:17;;;;;;;7.20;1.73;;;13.50;54.30;;;;;;5021573;28;20065;-43
2022/11/24 11:44:49;;;;;;;12.25;2.53;;;13.50;54.20;;;;;;5022028;28;20057;-42
2022/11/24 11:47:25;;;;;;;14.02;1.92;;;13.50;54.30;;;;;;5024246;28;20615;-45
2022/11/24 11:49:52;;;;;;;15.50;2.20;;;13.50;54.40;;;;;;5022817;28;20053;-43
2022/11/24 11:52:50;;;;;;;10.57;2.05;;;13.50;54.40;;;;;;5025336;28;20068;-40
2022/11/24 11:55:58;;;;;;;13.48;2.28;;;13.60;54.40;;;;;;5019094;28;20053;-41
2022/11/24 11:59:00;;;;;;;12.90;2.25;;;13.60;54.20;;;;;;5025282;28;20056;-41
2022/11/24 12:01:51;;;;;;;9.95;1.95;;;13.70;54.00;;;;;;5017356;28;20053;-43
2022/11/24 12:04:39;;;;;;;11.25;2.08;;;13.70;54.00;;;;;;4972097;28;20072;-41
2022/11/24 12:07:32;;;;;;;7.97;1.55;;;13.70;54.00;;;;;;5026776;28;20398;-42
2022/11/24 12:10:09;;;;;;;6.65;1.48;;;13.80;54.00;;;;;;5025081;28;20068;-41
2022/11/24 12:13:14;;;;;;;11.57;2.55;;;13.80;54.00;;;;;;5025700;28;20057;-45
2022/11/24 12:15:48;;;;;;;11.50;1.92;;;13.80;53.70;;;;;;4998994;28;20053;-43
2022/11/24 12:18:27;;;;;;;9.63;1.70;;;13.90;53.30;;;;;;5024353;28;20076;-43
2022/11/24 12:21:05;;;;;;;13.63;2.58;;;13.90;53.00;;;;;;5022949;28;20614;-46
2022/11/24 12:23:45;;;;;;;12.52;2.22;;;14.00;53.10;;;;;;5024824;28;20053;-41
2022/11/24 12:26:22;;;;;;;10.23;2.00;;;14.00;52.90;;;;;;5023354;28;20054;-43
2022/11/24 12:29:01;;;;;;;9.77;1.52;;;14.00;52.80;;;;;;5026073;28;20057;-40
2022/11/24 12:31:37;;;;;;;14.15;1.92;;;14.00;52.70;;;;;;5023262;28;20064;-41
2022/11/24 12:34:29;;;;;;;11.95;2.28;;;14.00;52.40;;;;;;5024007;28;20053;-40
2022/11/24 12:37:14;;;;;;;19.40;2.95;;;14.10;52.20;;;;;;5025020;28;20049;-45
2022/11/24 12:39:50;;;;;;;17.02;2.45;;;14.10;51.90;;;;;;5023668;28;20053;-44
2022/11/24 12:42:26;;;;;;;13.20;2.55;;;14.10;51.80;;;;;;5022535;28;20097;-40
2022/11/24 12:45:16;;;;;;;12.95;3.78;;;14.10;51.90;;;;;;5025039;28;20061;-44
2022/11/24 12:50:45;;;;;;;13.02;2.65;;;14.10;52.10;;;;;;5057432;28;20636;-44
2022/11/24 12:53:16;;;;;;;10.02;2.10;;;14.10;52.20;;;;;;5045365;28;20507;-45
2022/11/24 12:55:44;;;;;;;15.13;2.22;;;14.20;52.20;;;;;;5037964;28;20064;-43
2022/11/24 12:58:18;;;;;;;14.23;2.40;;;14.20;52.00;;;;;;5045173;28;20060;-41
2022/11/24 13:00:59;;;;;;;14.88;2.22;;;14.20;51.80;;;;;;5044869;28;20057;-45
2022/11/24 13:03:37;;;;;;;13.20;2.78;;;14.30;51.80;;;;;;5051338;28;20045;-42